Time;durP1;ratioP1;P1;durP2;ratioP2;P2;SDS_P1;SDS_P2;PMS_P1;PMS_P2;Temp;Humidity;BMP_temperature;BMP_pressure;BME280_temperature;BME280_humidity;BME280_pressure;Samples;Min_cycle;Max_cycle;Signal;HPM_P1;HPM_P2
2022/11/02 00:00:41;;;;;;;;;;;13.40;99.90;;;;;;5015544;28;19956;-74
2022/11/02 00:03:07;;;;;;;;;;;13.20;99.90;;;;;;4981560;28;19976;-74
2022/11/02 00:05:32;;;;;;;;;;;13.20;99.90;;;;;;5013510;28;19925;-74
2022/11/02 00:07:58;;;;;;;;;;;13.00;99.90;;;;;;5014023;28;20403;-73
2022/11/02 00:10:24;;;;;;;;;;;13.20;99.90;;;;;;5014082;28;20295;-74
2022/11/02 00:12:49;;;;;;;;;;;12.80;99.90;;;;;;5135258;22;20273;-72
2022/11/02 00:15:15;;;;;;;;;;;12.80;99.90;;;;;;5132459;27;20008;-72
2022/11/02 00:17:43;;;;;;;;;;;12.80;99.90;;;;;;5135765;27;20315;-72
2022/11/02 00:20:09;;;;;;;;;;;12.70;99.90;;;;;;5134393;27;19970;-72
2022/11/02 00:22:35;;;;;;;;;;;12.70;99.90;;;;;;5101531;28;20015;-72
2022/11/02 00:25:03;;;;;;;;;;;;;;;;;;5108874;28;19920;-72
2022/11/02 00:27:29;;;;;;;;;;;12.70;99.90;;;;;;5093521;28;19974;-73
2022/11/02 00:29:54;;;;;;;;;;;12.60;99.90;;;;;;5113637;28;19924;-73
2022/11/02 00:32:20;;;;;;;;;;;12.60;99.90;;;;;;5113718;28;19927;-73
2022/11/02 00:34:45;;;;;;;;;;;12.50;99.90;;;;;;5112054;28;19924;-72
2022/11/02 00:37:11;;;;;;;;;;;12.40;99.90;;;;;;5095789;28;19920;-72
2022/11/02 00:39:37;;;;;;;;;;;12.70;99.90;;;;;;5092942;28;20313;-72
2022/11/02 00:42:02;;;;;;;;;;;12.50;99.90;;;;;;5094106;28;19920;-73
2022/11/02 00:44:28;;;;;;;;;;;12.50;99.90;;;;;;5105226;28;19951;-73
2022/11/02 00:46:54;;;;;;;;;;;12.10;99.90;;;;;;5096482;28;19920;-73
2022/11/02 00:49:19;;;;;;;;;;;12.30;99.90;;;;;;5113197;28;19959;-72
2022/11/02 00:51:45;;;;;;;;;;;12.40;99.90;;;;;;5113455;28;20262;-72
2022/11/02 00:54:11;;;;;;;;;;;12.70;99.90;;;;;;5112998;28;19923;-72
2022/11/02 00:56:38;;;;;;;;;;;;;;;;;;5113256;28;20289;-73
2022/11/02 00:59:03;;;;;;;;;;;12.50;99.90;;;;;;5113371;28;19970;-72
2022/11/02 01:01:29;;;;;;;;;;;12.30;99.90;;;;;;5113166;28;20422;-73
2022/11/02 01:03:55;;;;;;;;;;;12.20;99.90;;;;;;5111938;28;20008;-72
2022/11/02 01:06:20;;;;;;;;;;;12.20;99.90;;;;;;5098870;28;19973;-72
2022/11/02 01:08:46;;;;;;;;;;;12.30;99.90;;;;;;5092596;28;19981;-73
2022/11/02 01:11:12;;;;;;;;;;;;;;;;;;5092205;28;20003;-72
2022/11/02 01:13:37;;;;;;;;;;;12.30;99.90;;;;;;5102813;28;19924;-73
2022/11/02 01:16:03;;;;;;;;;;;12.30;99.90;;;;;;5112272;28;19971;-73
2022/11/02 01:18:29;;;;;;;;;;;12.30;99.90;;;;;;5113958;28;19920;-73
2022/11/02 01:20:54;;;;;;;;;;;;;;;;;;5112669;28;19920;-73
2022/11/02 01:23:20;;;;;;;;;;;;;;;;;;5113210;28;19926;-73
2022/11/02 01:25:46;;;;;;;;;;;12.20;99.90;;;;;;5102470;28;19920;-72
2022/11/02 01:28:13;;;;;;;;;;;12.30;99.90;;;;;;5091564;28;20389;-73
2022/11/02 01:30:39;;;;;;;;;;;12.10;99.90;;;;;;5092082;28;20015;-73
2022/11/02 01:33:05;;;;;;;;;;;12.20;99.90;;;;;;5092240;28;19928;-71
2022/11/02 01:35:30;;;;;;;;;;;12.40;99.90;;;;;;5091240;28;20550;-72
2022/11/02 01:37:56;;;;;;;;;;;12.50;99.90;;;;;;5092469;28;19945;-73
2022/11/02 01:40:21;;;;;;;;;;;12.40;99.90;;;;;;5115852;27;19919;-74
2022/11/02 01:42:47;;;;;;;;;;;12.40;99.90;;;;;;5132832;27;20296;-73
2022/11/02 01:45:13;;;;;;;;;;;12.10;99.90;;;;;;5112922;28;19920;-72
2022/11/02 01:47:41;;;;;;;;;;;12.30;99.90;;;;;;5113648;28;20360;-73
2022/11/02 01:50:18;;;;;;;;;;;12.40;99.90;;;;;;5112133;28;20411;-73
2022/11/02 01:52:43;;;;;;;;;;;12.00;99.90;;;;;;5112069;28;19946;-74
2022/11/02 01:55:12;;;;;;;;;;;11.80;99.90;;;;;;5110889;28;19924;-73
2022/11/02 01:57:38;;;;;;;;;;;11.80;99.90;;;;;;5111929;28;19924;-73
2022/11/02 02:00:04;;;;;;;;;;;;;;;;;;5113398;28;19927;-73
2022/11/02 02:02:31;;;;;;;;;;;11.80;99.90;;;;;;5112145;28;19920;-73
2022/11/02 02:05:04;;;;;;;;;;;11.80;99.90;;;;;;5106124;28;19924;-73
2022/11/02 02:07:31;;;;;;;;;;;11.60;99.90;;;;;;5091168;28;19920;-72
2022/11/02 02:09:57;;;;;;;;;;;11.60;99.90;;;;;;5091729;28;19960;-72
2022/11/02 02:12:23;;;;;;;;;;;11.60;99.90;;;;;;5092224;28;19927;-72
2022/11/02 02:14:49;;;;;;;;;;;11.50;99.90;;;;;;5110865;28;20376;-72
2022/11/02 02:17:38;;;;;;;;;;;11.60;99.90;;;;;;5110316;28;20007;-72
2022/11/02 02:20:08;;;;;;;;;;;11.60;99.90;;;;;;5091158;28;19921;-73
2022/11/02 02:22:42;;;;;;;;;;;11.90;99.90;;;;;;5093168;28;19920;-72
2022/11/02 02:25:26;;;;;;;;;;;11.70;99.90;;;;;;5112146;28;19924;-74
2022/11/02 02:28:10;;;;;;;;;;;11.70;99.90;;;;;;5112838;28;19966;-72
2022/11/02 02:30:39;;;;;;;;;;;11.80;99.90;;;;;;5111366;28;19920;-72
2022/11/02 02:33:05;;;;;;;;;;;;;;;;;;5110755;28;20015;-74
2022/11/02 02:35:36;;;;;;;;;;;11.60;99.90;;;;;;5093583;28;19974;-72
2022/11/02 02:38:04;;;;;;;;;;;11.70;99.90;;;;;;5093327;28;19920;-73
2022/11/02 02:40:33;;;;;;;;;;;11.60;99.90;;;;;;5090794;28;19920;-73
2022/11/02 02:43:14;;;;;;;;;;;11.70;99.90;;;;;;5091415;28;20534;-72
2022/11/02 02:45:45;;;;;;;;;;;11.90;99.90;;;;;;5090362;28;19920;-72
2022/11/02 02:48:11;;;;;;;;;;;11.60;99.90;;;;;;5091195;28;20368;-72
2022/11/02 02:50:48;;;;;;;;;;;11.70;99.90;;;;;;5073989;28;19920;-72
2022/11/02 02:53:15;;;;;;;;;;;11.90;99.90;;;;;;5097088;28;19924;-73
2022/11/02 02:55:43;;;;;;;;;;;11.70;99.90;;;;;;5110489;28;20306;-73
2022/11/02 02:58:12;;;;;;;;;;;11.50;99.90;;;;;;5111212;28;19964;-73
2022/11/02 03:00:38;;;;;;;;;;;11.70;99.90;;;;;;5111422;28;19931;-72
2022/11/02 03:03:04;;;;;;;;;;;11.60;99.90;;;;;;5088512;28;19920;-72
2022/11/02 03:05:31;;;;;;;;;;;11.80;99.90;;;;;;5089974;28;19920;-73
2022/11/02 03:07:57;;;;;;;;;;;;;;;;;;5073768;28;19924;-73
2022/11/02 03:10:31;;;;;;;;;;;11.80;99.90;;;;;;5090817;28;19920;-73
2022/11/02 03:13:15;;;;;;;;;;;11.90;99.90;;;;;;5094107;28;20411;-73
2022/11/02 03:15:44;;;;;;;;;;;11.60;99.90;;;;;;5110251;28;19919;-72
2022/11/02 03:18:34;;;;;;;;;;;11.80;99.90;;;;;;5112183;28;19920;-72
2022/11/02 03:21:00;;;;;;;;;;;11.80;99.90;;;;;;5109031;28;19920;-72
2022/11/02 03:23:38;;;;;;;;;;;11.60;99.90;;;;;;5093110;28;20311;-72
2022/11/02 03:26:26;;;;;;;;;;;11.80;99.90;;;;;;5102257;28;19931;-73
2022/11/02 03:28:58;;;;;;;;;;;11.50;99.90;;;;;;5110789;28;20584;-71
2022/11/02 03:31:29;;;;;;;;;;;11.50;99.90;;;;;;5110842;28;19920;-72
2022/11/02 03:33:56;;;;;;;;;;;;;;;;;;5098048;28;20309;-72
2022/11/02 03:36:25;;;;;;;;;;;11.70;99.90;;;;;;5091862;28;19920;-72
2022/11/02 03:38:54;;;;;;;;;;;11.60;99.90;;;;;;5090404;28;19920;-72
2022/11/02 03:41:21;;;;;;;;;;;11.50;99.90;;;;;;5091428;28;19920;-72
2022/11/02 03:43:47;;;;;;;;;;;11.50;99.90;;;;;;5100147;28;19920;-72
2022/11/02 03:46:15;;;;;;;;;;;11.50;99.90;;;;;;5096261;28;19939;-72
2022/11/02 03:48:42;;;;;;;;;;;11.30;99.90;;;;;;5115775;28;20065;-72
2022/11/02 03:51:10;;;;;;;;;;;11.50;99.90;;;;;;5097182;28;19927;-71
2022/11/02 03:53:38;;;;;;;;;;;11.50;99.90;;;;;;5114928;28;19930;-72
2022/11/02 03:56:10;;;;;;;;;;;11.40;99.90;;;;;;5113172;28;20304;-72
2022/11/02 03:58:36;;;;;;;;;;;11.20;99.90;;;;;;5114284;28;19927;-73
2022/11/02 04:01:03;;;;;;;;;;;11.50;99.90;;;;;;5114158;28;20293;-72
2022/11/02 04:03:30;;;;;;;;;;;11.40;99.90;;;;;;5093211;28;19976;-72
2022/11/02 04:05:55;;;;;;;;;;;11.70;99.90;;;;;;5093278;28;20294;-73
2022/11/02 04:08:25;;;;;;;;;;;11.50;99.90;;;;;;5093843;28;19926;-72
2022/11/02 04:16:20;;;;;;;;;;;11.70;99.90;;;;;;5093567;28;19926;-73
2022/11/02 04:21:30;;;;;;;;;;;11.70;99.90;;;;;;5093503;28;20015;-72
2022/11/02 04:26:40;;;;;;;;;;;11.80;99.90;;;;;;5113874;28;19920;-72
2022/11/02 04:29:05;;;;;;;;;;;11.60;99.90;;;;;;5113986;28;20392;-72
2022/11/02 04:31:31;;;;;;;;;;;11.70;99.90;;;;;;5115081;28;19963;-75
2022/11/02 04:34:00;;;;;;;;;;;11.70;99.90;;;;;;5113517;28;19925;-73
2022/11/02 04:36:27;;;;;;;;;;;11.70;99.90;;;;;;5113380;28;20393;-73
2022/11/02 04:38:53;;;;;;;;;;;11.60;99.90;;;;;;5113910;28;20011;-73
2022/11/02 04:44:04;;;;;;;;;;;11.70;99.90;;;;;;5102343;27;19924;-73
2022/11/02 04:46:30;;;;;;;;;;;11.70;99.90;;;;;;5108925;28;19923;-73
2022/11/02 04:48:56;;;;;;;;;;;11.70;99.90;;;;;;5114689;28;19920;-72
2022/11/02 04:51:22;;;;;;;;;;;11.80;99.90;;;;;;5114363;28;19919;-72
2022/11/02 04:53:48;;;;;;;;;;;11.60;99.90;;;;;;5104863;28;19990;-72
2022/11/02 04:56:14;;;;;;;;;;;11.70;99.90;;;;;;5093063;28;19951;-73
2022/11/02 04:58:39;;;;;;;;;;;11.50;99.90;;;;;;5092565;28;19920;-72
2022/11/02 05:01:11;;;;;;;;;;;11.70;99.90;;;;;;5092388;28;19924;-73
2022/11/02 05:03:36;;;;;;;;;;;11.60;99.90;;;;;;5092771;28;19959;-72
2022/11/02 05:06:02;;;;;;;;;;;11.60;99.90;;;;;;5091649;28;19963;-72
2022/11/02 05:08:28;;;;;;;;;;;11.50;99.90;;;;;;5092567;28;20340;-74
2022/11/02 05:10:57;;;;;;;;;;;11.50;99.90;;;;;;5092391;28;19920;-73
2022/11/02 05:13:23;;;;;;;;;;;11.30;99.90;;;;;;5093521;28;20019;-73
2022/11/02 05:15:49;;;;;;;;;;;11.40;99.90;;;;;;5102726;28;19926;-73
2022/11/02 05:18:14;;;;;;;;;;;11.40;99.90;;;;;;5112616;28;20006;-73
2022/11/02 05:20:40;;;;;;;;;;;11.60;99.90;;;;;;5095699;28;19920;-73
2022/11/02 05:23:06;;;;;;;;;;;11.40;99.90;;;;;;5113361;28;19919;-73
2022/11/02 05:25:31;;;;;;;;;;;11.60;99.90;;;;;;5113180;28;19924;-73
2022/11/02 05:27:57;;;;;;;;;;;11.40;99.90;;;;;;5112572;28;19959;-73
2022/11/02 05:30:22;;;;;;;;;;;11.50;99.90;;;;;;5112575;28;20348;-73
2022/11/02 05:32:48;;;;;;;;;;;11.60;99.90;;;;;;5110887;28;19928;-73
2022/11/02 05:35:13;;;;;;;;;;;11.40;99.90;;;;;;5113059;28;19919;-73
2022/11/02 05:37:39;;;;;;;;;;;11.60;99.90;;;;;;5112743;28;20436;-73
2022/11/02 05:40:05;;;;;;;;;;;11.50;99.90;;;;;;5095418;28;19924;-72
2022/11/02 05:42:31;;;;;;;;;;;11.60;99.90;;;;;;5111206;28;20005;-71
2022/11/02 05:44:56;;;;;;;;;;;12.20;99.90;;;;;;5092478;28;20328;-72
2022/11/02 05:47:22;;;;;;;;;;;11.30;99.90;;;;;;5091727;28;19920;-72
2022/11/02 05:49:47;;;;;;;;;;;11.60;99.90;;;;;;5093288;28;19934;-73
2022/11/02 05:52:12;;;;;;;;;;;11.60;99.90;;;;;;5104434;28;19963;-73
2022/11/02 05:54:38;;;;;;;;;;;11.50;99.90;;;;;;5111784;28;19954;-73
2022/11/02 05:57:03;;;;;;;;;;;11.70;99.90;;;;;;5113245;28;19924;-73
2022/11/02 05:59:29;;;;;;;;;;;11.60;99.90;;;;;;5112268;28;19943;-71
2022/11/02 06:01:54;;;;;;;;;;;11.70;99.90;;;;;;5111553;28;20014;-72
2022/11/02 06:04:20;;;;;;;;;;;11.70;99.90;;;;;;5095943;28;20285;-72
2022/11/02 06:06:45;;;;;;;;;;;11.70;99.90;;;;;;5091731;28;19928;-73
2022/11/02 06:09:11;;;;;;;;;;;11.70;99.90;;;;;;5080624;28;19920;-74
2022/11/02 06:11:36;;;;;;;;;;;11.80;99.90;;;;;;5120447;27;19919;-72
2022/11/02 06:14:02;;;;;;;;;;;12.20;99.90;;;;;;5127242;27;19945;-72
2022/11/02 06:16:28;;;;;;;;;;;11.70;99.90;;;;;;5112919;28;19934;-71
2022/11/02 06:18:53;;;;;;;;;;;11.90;99.90;;;;;;5110789;28;19942;-72
2022/11/02 06:21:19;;;;;;;;;;;11.70;99.90;;;;;;5109444;28;19920;-74
2022/11/02 06:23:48;;;;;;;;;;;11.60;99.90;;;;;;5110304;28;19926;-72
2022/11/02 06:26:13;;;;;;;;;;;11.90;99.90;;;;;;5111231;28;19924;-73
2022/11/02 06:28:39;;;;;;;;;;;11.40;99.90;;;;;;5109507;28;19920;-72
2022/11/02 06:31:04;;;;;;;;;;;11.80;99.90;;;;;;5111378;28;19920;-72
2022/11/02 06:33:30;;;;;;;;;;;11.70;99.90;;;;;;5112850;28;19971;-72
2022/11/02 06:35:55;;;;;;;;;;;11.60;99.90;;;;;;5110875;28;20267;-73
2022/11/02 06:38:21;;;;;;;;;;;11.60;99.90;;;;;;5112843;28;19939;-75
2022/11/02 06:40:57;;;;;;;;;;;11.80;99.90;;;;;;5110493;28;19949;-72
2022/11/02 06:43:23;;;;;;;;;;;11.70;99.90;;;;;;5115996;28;19920;-70
2022/11/02 06:45:49;;;;;;;;;;;11.70;99.90;;;;;;5114963;28;19927;-73
2022/11/02 06:48:14;;;;;;;;;;;11.70;99.90;;;;;;5115265;28;19927;-73
2022/11/02 06:50:40;;;;;;;;;;;11.80;99.90;;;;;;5088926;28;20324;-73
2022/11/02 06:53:05;;;;;;;;;;;11.80;99.90;;;;;;5101979;28;20050;-72
2022/11/02 06:55:31;;;;;;;;;;;11.80;99.90;;;;;;5104481;28;19927;-72
2022/11/02 06:57:56;;;;;;;;;;;11.80;99.90;;;;;;5093939;28;20341;-72
2022/11/02 07:00:22;;;;;;;;;;;11.80;99.90;;;;;;5075959;28;20034;-72
2022/11/02 07:03:00;;;;;;;;;;;11.80;99.90;;;;;;5088054;28;19938;-72
2022/11/02 07:05:26;;;;;;;;;;;11.70;99.90;;;;;;5099260;28;20006;-72
2022/11/02 07:07:51;;;;;;;;;;;11.70;99.90;;;;;;5098985;28;19924;-72
2022/11/02 07:10:17;;;;;;;;;;;11.80;99.90;;;;;;5095166;28;19927;-71
2022/11/02 07:12:42;;;;;;;;;;;11.70;99.90;;;;;;5095077;28;19931;-71
2022/11/02 07:15:08;;;;;;;;;;;11.60;99.90;;;;;;5095260;28;19931;-71
2022/11/02 07:17:37;;;;;;;;;;;11.50;99.90;;;;;;5092938;28;19946;-72
2022/11/02 07:20:04;;;;;;;;;;;11.40;99.90;;;;;;5098578;28;20385;-72
2022/11/02 07:22:31;;;;;;;;;;;11.30;99.90;;;;;;5091717;28;19924;-73
2022/11/02 07:24:57;;;;;;;;;;;11.30;99.90;;;;;;5101713;28;19920;-73
2022/11/02 07:27:22;;;;;;;;;;;11.50;99.90;;;;;;5102918;28;20637;-72
2022/11/02 07:29:48;;;;;;;;;;;11.40;99.90;;;;;;5091747;27;21462;-72
2022/11/02 07:32:13;;;;;;;;;;;11.40;99.90;;;;;;5098852;28;19926;-72
2022/11/02 07:34:39;;;;;;;;;;;11.30;99.90;;;;;;5109304;28;19999;-73
2022/11/02 07:37:04;;;;;;;;;;;11.20;99.90;;;;;;5103523;28;20011;-73
2022/11/02 07:39:30;;;;;;;;;;;11.40;99.90;;;;;;5097723;28;19920;-73
2022/11/02 07:41:55;;;;;;;;;;;11.40;99.90;;;;;;5102768;28;19924;-73
2022/11/02 07:44:21;;;;;;;;;;;11.50;99.90;;;;;;5094629;28;20002;-73
2022/11/02 07:46:46;;;;;;;;;;;11.50;99.90;;;;;;5095601;28;19920;-73
2022/11/02 07:49:12;;;;;;;;;;;11.40;99.90;;;;;;5106929;28;20310;-73
2022/11/02 07:51:37;;;;;;;;;;;11.50;99.90;;;;;;5094955;28;20019;-72
2022/11/02 07:54:03;;;;;;;;;;;11.40;99.90;;;;;;5101170;28;20348;-73
2022/11/02 07:56:28;;;;;;;;;;;11.50;99.90;;;;;;5095305;28;19927;-73
2022/11/02 07:58:54;;;;;;;;;;;11.60;99.90;;;;;;5109384;28;19935;-73
2022/11/02 08:01:19;;;;;;;;;;;11.60;99.90;;;;;;5114713;28;19964;-73
2022/11/02 08:03:45;;;;;;;;;;;11.70;99.90;;;;;;5113641;28;19920;-73
2022/11/02 08:06:10;;;;;;;;;;;11.70;99.90;;;;;;5099642;28;20390;-74
2022/11/02 08:08:36;;;;;;;;;;;11.60;99.90;;;;;;5093516;28;19942;-73
2022/11/02 08:11:03;;;;;;;;;;;11.90;99.90;;;;;;5103748;28;19927;-72
2022/11/02 08:13:28;;;;;;;;;;;11.80;99.90;;;;;;5100989;28;19928;-74
2022/11/02 08:15:54;;;;;;;;;;;11.80;99.90;;;;;;5110691;28;19920;-73
2022/11/02 08:18:20;;;;;;;;;;;11.90;99.90;;;;;;5102376;28;19920;-73
2022/11/02 08:20:46;;;;;;;;;;;;;;;;;;5102280;28;19924;-74
2022/11/02 08:23:12;;;;;;;;;;;11.80;99.90;;;;;;5104467;28;19947;-74
2022/11/02 08:25:39;;;;;;;;;;;12.00;99.90;;;;;;5097868;28;20321;-73
2022/11/02 08:28:05;;;;;;;;;;;11.80;99.90;;;;;;5102265;27;20139;-73
2022/11/02 08:30:31;;;;;;;;;;;;;;;;;;5113520;27;19927;-73
2022/11/02 08:33:04;;;;;;;;;;;11.80;99.90;;;;;;5109929;28;20375;-73
2022/11/02 08:35:29;;;;;;;;;;;11.70;99.90;;;;;;5091404;28;19931;-74
2022/11/02 08:37:55;;;;;;;;;;;11.90;99.90;;;;;;5093743;28;19920;-74
2022/11/02 08:40:21;;;;;;;;;;;12.20;99.90;;;;;;5110063;28;20381;-72
2022/11/02 08:42:46;;;;;;;;;;;12.20;99.90;;;;;;5110325;28;19920;-73
2022/11/02 08:45:12;;;;;;;;;;;12.30;99.90;;;;;;5101680;27;20373;-72
2022/11/02 08:47:41;;;;;;;;;;;12.30;99.90;;;;;;5109249;27;19963;-73
2022/11/02 08:50:07;;;;;;;;;;;12.50;99.90;;;;;;5097878;28;19924;-72
2022/11/02 08:52:36;;;;;;;;;;;12.40;99.90;;;;;;5101670;28;19919;-72
2022/11/02 08:55:03;;;;;;;;;;;12.40;99.90;;;;;;5103162;28;20010;-73
2022/11/02 08:57:28;;;;;;;;;;;12.40;99.90;;;;;;5106264;28;19946;-73
2022/11/02 08:59:54;;;;;;;;;;;12.20;99.90;;;;;;5112045;28;19920;-73
2022/11/02 09:02:19;;;;;;;;;;;12.70;99.90;;;;;;5108167;28;19920;-73
2022/11/02 09:04:44;;;;;;;;;;;12.70;99.90;;;;;;5109848;28;19988;-73
2022/11/02 09:07:10;;;;;;;;;;;12.50;99.90;;;;;;5113503;28;19919;-73
2022/11/02 09:09:35;;;;;;;;;;;12.70;99.90;;;;;;5111471;28;19927;-72
2022/11/02 09:12:01;;;;;;;;;;;12.70;99.90;;;;;;5098634;28;19924;-72
2022/11/02 09:14:26;;;;;;;;;;;12.80;99.90;;;;;;5107536;28;20050;-72
2022/11/02 09:16:52;;;;;;;;;;;12.70;99.90;;;;;;5090863;28;19927;-74
2022/11/02 09:19:17;;;;;;;;;;;12.60;99.90;;;;;;5102546;28;19974;-75
2022/11/02 09:21:43;;;;;;;;;;;12.70;99.90;;;;;;5098263;27;20056;-74
2022/11/02 09:24:08;;;;;;;;;;;12.50;99.90;;;;;;5106233;28;19931;-72
2022/11/02 09:26:34;;;;;;;;;;;12.60;99.90;;;;;;5112861;28;19924;-73
2022/11/02 09:28:59;;;;;;;;;;;12.70;99.90;;;;;;5094297;28;20435;-73
2022/11/02 09:31:27;;;;;;;;;;;12.60;99.90;;;;;;5099490;28;20011;-74
2022/11/02 09:33:52;;;;;;;;;;;12.90;99.90;;;;;;5090905;28;19924;-70
2022/11/02 09:36:18;;;;;;;;;;;12.90;99.90;;;;;;5096242;28;19923;-72
2022/11/02 09:38:43;;;;;;;;;;;13.00;99.90;;;;;;5100487;28;19921;-72
2022/11/02 09:41:12;;;;;;;;;;;13.10;99.90;;;;;;5102258;28;19942;-72
2022/11/02 09:44:10;;;;;;;;;;;13.30;99.90;;;;;;5101265;28;19919;-71
2022/11/02 09:46:36;;;;;;;;;;;13.40;99.90;;;;;;5102968;27;19928;-71
2022/11/02 09:49:03;;;;;;;;;;;13.20;99.90;;;;;;5097770;28;20020;-72
2022/11/02 09:51:34;;;;;;;;;;;13.60;99.90;;;;;;5108620;28;19923;-72
2022/11/02 09:54:05;;;;;;;;;;;13.70;99.90;;;;;;5102892;28;19992;-72
2022/11/02 09:56:31;;;;;;;;;;;13.60;99.90;;;;;;5107610;28;20339;-72
2022/11/02 09:58:59;;;;;;;;;;;13.70;99.90;;;;;;5104863;28;20377;-73
2022/11/02 10:01:39;;;;;;;;;;;13.70;99.90;;;;;;5098470;28;20430;-73
2022/11/02 10:04:24;;;;;;;;;;;13.60;99.90;;;;;;5120699;27;20416;-72
2022/11/02 10:06:55;;;;;;;;;;;13.80;99.90;;;;;;5108786;28;20413;-75
2022/11/02 10:09:26;;;;;;;;;;;13.50;99.90;;;;;;5094405;28;19920;-73
2022/11/02 10:12:12;;;;;;;;;;;13.70;99.90;;;;;;5093459;28;19927;-73
2022/11/02 10:14:41;;;;;;;;;;;13.90;99.90;;;;;;5111054;28;19946;-74
2022/11/02 10:17:11;;;;;;;;;;;14.00;99.90;;;;;;5110830;28;19995;-74
2022/11/02 10:19:42;;;;;;;;;;;14.10;99.90;;;;;;5100343;28;19927;-75
2022/11/02 10:22:10;;;;;;;;;;;14.00;99.90;;;;;;5114693;27;19923;-74
2022/11/02 10:24:41;;;;;;;;;;;15.10;99.90;;;;;;5105194;27;19927;-72
2022/11/02 10:27:15;;;;;;;;;;;13.90;99.90;;;;;;5106836;28;19919;-72
2022/11/02 10:29:56;;;;;;;;;;;14.00;99.90;;;;;;5101321;28;19923;-74
2022/11/02 10:32:21;;;;;;;;;;;14.00;99.90;;;;;;5102845;28;19981;-74
2022/11/02 10:34:47;;;;;;;;;;;13.80;99.90;;;;;;5103723;28;19924;-74
2022/11/02 10:37:25;;;;;;;;;;;13.90;99.90;;;;;;5095156;28;20018;-73
2022/11/02 10:39:53;;;;;;;;;;;13.80;99.90;;;;;;5102074;28;20341;-73
2022/11/02 10:42:44;;;;;;;;;;;14.00;99.90;;;;;;5100282;28;19931;-73
2022/11/02 10:45:12;;;;;;;;;;;14.10;99.90;;;;;;5104362;28;19920;-74
2022/11/02 10:47:41;;;;;;;;;;;14.20;99.90;;;;;;5100589;28;20340;-74
2022/11/02 10:50:41;;;;;;;;;;;14.00;99.90;;;;;;5102907;28;19972;-74
2022/11/02 10:53:11;;;;;;;;;;;14.00;99.90;;;;;;5070235;28;19932;-74
2022/11/02 10:55:55;;;;;;;;;;;14.00;99.90;;;;;;5099000;28;19920;-74
2022/11/02 10:58:20;;;;;;;;;;;14.10;99.90;;;;;;5108171;28;19920;-73
2022/11/02 11:00:51;;;;;;;;;;;14.20;99.90;;;;;;5104946;28;19976;-75
2022/11/02 11:03:17;;;;;;;;;;;13.90;99.90;;;;;;5106838;28;19930;-74
2022/11/02 11:05:49;;;;;;;;;;;14.00;99.90;;;;;;5109007;28;20373;-73
2022/11/02 11:08:29;;;;;;;;;;;14.20;99.90;;;;;;5101887;28;19924;-74
2022/11/02 11:11:08;;;;;;;;;;;13.80;99.90;;;;;;5105810;28;20023;-74
2022/11/02 11:13:33;;;;;;;;;;;13.80;99.90;;;;;;5111424;28;19973;-74
2022/11/02 11:15:59;;;;;;;;;;;14.00;99.90;;;;;;5114729;28;19924;-75
2022/11/02 11:18:25;;;;;;;;;;;14.10;99.90;;;;;;5108469;28;20423;-74
2022/11/02 11:20:53;;;;;;;;;;;14.00;99.90;;;;;;5098812;28;19930;-73
2022/11/02 11:23:20;;;;;;;;;;;14.00;99.90;;;;;;5119507;27;20284;-74
2022/11/02 11:25:56;;;;;;;;;;;14.00;99.90;;;;;;5113331;28;20438;-74
2022/11/02 11:28:32;;;;;;;;;;;14.40;99.90;;;;;;5106149;28;19924;-72
2022/11/02 11:31:04;;;;;;;;;;;14.30;99.90;;;;;;5103218;28;19927;-74
2022/11/02 11:33:30;;;;;;;;;;;14.10;99.90;;;;;;5107637;28;19978;-73
2022/11/02 11:35:55;;;;;;;;;;;14.30;99.90;;;;;;5104757;28;19920;-73
2022/11/02 11:38:22;;;;;;;;;;;14.60;99.90;;;;;;5109814;28;19928;-75
2022/11/02 11:40:52;;;;;;;;;;;14.40;99.90;;;;;;5088693;28;19930;-72
2022/11/02 11:43:19;;;;;;;;;;;14.30;99.90;;;;;;5106336;28;19968;-75
2022/11/02 11:45:54;;;;;;;;;;;14.30;99.90;;;;;;5105000;28;19924;-74
2022/11/02 11:48:19;;;;;;;;;;;14.30;99.90;;;;;;5101283;28;20057;-74
2022/11/02 11:50:45;;;;;;;;;;;14.40;99.90;;;;;;5100059;28;20010;-74
2022/11/02 11:53:20;;;;;;;;;;;14.30;99.90;;;;;;5106507;28;20405;-74
2022/11/02 11:55:47;;;;;;;;;;;14.40;99.90;;;;;;5102165;28;20494;-73
2022/11/02 11:58:22;;;;;;;;;;;14.30;99.90;;;;;;5094985;28;20389;-73
2022/11/02 12:01:02;;;;;;;;;;;14.50;99.90;;;;;;5107012;28;19920;-73
2022/11/02 12:03:27;;;;;;;;;;;14.40;99.90;;;;;;5099514;28;19924;-74
2022/11/02 12:05:59;;;;;;;;;;;14.50;99.90;;;;;;5108718;28;20018;-73
2022/11/02 12:08:30;;;;;;;;;;;14.10;99.90;;;;;;5092523;28;19947;-73
2022/11/02 12:11:21;;;;;;;;;;;14.20;99.90;;;;;;5092540;28;19920;-74
2022/11/02 12:13:50;;;;;;;;;;;14.30;99.90;;;;;;5083424;22;19931;-71
2022/11/02 12:16:24;;;;;;;;;;;14.10;99.90;;;;;;5035548;28;19928;-73
2022/11/02 12:19:05;;;;;;;;;;;14.10;99.90;;;;;;5019815;28;19921;-73
2022/11/02 12:21:50;;;;;;;;;;;14.30;99.90;;;;;;5070415;28;19960;-73
2022/11/02 12:24:15;;;;;;;;;;;14.40;99.90;;;;;;5035842;28;19972;-73
2022/11/02 12:26:49;;;;;;;;;;;15.40;99.90;;;;;;5046533;28;19936;-73
2022/11/02 12:29:30;;;;;;;;;;;14.60;99.90;;;;;;5013186;28;19925;-73
2022/11/02 12:32:05;;;;;;;;;;;14.80;99.90;;;;;;5012824;28;19932;-73
2022/11/02 12:34:30;;;;;;;;;;;14.80;99.90;;;;;;5029246;28;19991;-73
2022/11/02 12:37:14;;;;;;;;;;;14.50;99.90;;;;;;5017402;28;19925;-73
2022/11/02 12:39:43;;;;;;;;;;;14.90;99.90;;;;;;5017065;28;19925;-73
2022/11/02 12:42:26;;;;;;;;;;;14.80;99.90;;;;;;5029575;28;19925;-75
2022/11/02 12:44:51;;;;;;;;;;;15.00;99.90;;;;;;5011096;28;20330;-73
2022/11/02 12:47:22;;;;;;;;;;;14.90;99.90;;;;;;4991586;28;19986;-73
2022/11/02 12:50:07;;;;;;;;;;;14.80;99.90;;;;;;5029245;28;19928;-73
2022/11/02 12:52:45;;;;;;;;;;;14.80;99.90;;;;;;5011256;28;20214;-73
2022/11/02 12:55:13;;;;;;;;;;;15.10;99.90;;;;;;5028693;28;19932;-74
2022/11/02 12:57:39;;;;;;;;;;;14.90;99.90;;;;;;5014159;28;20398;-73
2022/11/02 13:00:06;;;;;;;;;;;14.70;99.90;;;;;;5012087;28;20040;-73
2022/11/02 13:02:43;;;;;;;;;;;14.70;99.90;;;;;;5015196;28;19928;-74
2022/11/02 13:05:16;;;;;;;;;;;15.00;99.90;;;;;;5032750;28;20008;-73
2022/11/02 13:07:45;;;;;;;;;;;14.70;99.90;;;;;;5014159;28;20215;-73
2022/11/02 13:10:16;;;;;;;;;;;14.90;99.90;;;;;;5015055;28;19964;-73
2022/11/02 13:12:43;;;;;;;;;;;14.80;99.90;;;;;;5033389;28;19921;-73
2022/11/02 13:15:12;;;;;;;;;;;14.80;99.90;;;;;;5031771;28;20464;-73
2022/11/02 13:17:49;;;;;;;;;;;15.00;99.90;;;;;;5032355;28;19925;-73
2022/11/02 13:20:31;;;;;;;;;;;15.00;99.90;;;;;;5014705;28;20429;-73
2022/11/02 13:23:00;;;;;;;;;;;15.00;99.90;;;;;;5013796;28;20449;-73
2022/11/02 13:25:29;;;;;;;;;;;14.90;99.90;;;;;;4996945;28;20035;-73
2022/11/02 13:27:59;;;;;;;;;;;15.10;99.90;;;;;;5032126;28;19928;-73
2022/11/02 13:30:27;;;;;;;;;;;14.90;99.90;;;;;;5006296;28;19925;-73
2022/11/02 13:32:56;;;;;;;;;;;14.90;99.90;;;;;;5014251;28;20010;-73
2022/11/02 13:35:28;;;;;;;;;;;14.80;99.90;;;;;;5013595;28;20383;-73
2022/11/02 13:38:17;;;;;;;;;;;14.80;99.90;;;;;;5032362;28;19970;-73
2022/11/02 13:41:03;;;;;;;;;;;14.80;99.90;;;;;;4998664;28;19921;-73
2022/11/02 13:43:45;;;;;;;;;;;15.30;99.90;;;;;;4987705;28;19928;-73
2022/11/02 13:46:11;;;;;;;;;;;14.80;99.90;;;;;;5013885;28;19944;-73
2022/11/02 13:48:38;;;;;;;;;;;14.60;99.90;;;;;;5014208;28;19925;-73
2022/11/02 13:51:12;;;;;;;;;;;14.80;99.90;;;;;;5032877;28;19928;-73
2022/11/02 13:53:40;;;;;;;;;;;14.70;99.90;;;;;;5023151;28;19921;-73
2022/11/02 13:56:10;;;;;;;;;;;14.60;99.90;;;;;;5014222;28;19933;-74
2022/11/02 13:59:02;;;;;;;;;;;14.90;99.90;;;;;;5014023;28;19925;-74
2022/11/02 14:01:29;;;;;;;;;;;14.80;99.90;;;;;;4992411;28;19921;-73
2022/11/02 14:03:56;;;;;;;;;;;14.80;99.90;;;;;;5033703;28;19964;-74
2022/11/02 14:06:23;;;;;;;;;;;14.60;99.90;;;;;;5017366;28;19996;-74
2022/11/02 14:08:51;;;;;;;;;;;14.60;99.90;;;;;;5035147;28;19920;-74
2022/11/02 14:11:17;;;;;;;;;;;15.80;99.90;;;;;;5033795;28;19944;-73
2022/11/02 14:13:57;;;;;;;;;;;14.60;99.90;;;;;;5014227;28;20692;-73
2022/11/02 14:16:59;;;;;;;;;;;14.70;99.90;;;;;;5013517;28;19925;-74
2022/11/02 14:19:43;;;;;;;;;;;14.70;99.90;;;;;;4935445;29;20020;-72
2022/11/02 14:22:08;;;;;;;;;;;14.60;99.90;;;;;;4999959;28;19929;-72
2022/11/02 14:24:35;;;;;;;;;;;14.50;99.90;;;;;;5013453;28;20004;-72
2022/11/02 14:27:00;;;;;;;;;;;14.30;99.90;;;;;;5014373;28;19921;-73
2022/11/02 14:29:41;;;;;;;;;;;14.40;99.90;;;;;;5011974;28;20418;-73
2022/11/02 14:32:26;;;;;;;;;;;14.30;99.90;;;;;;5014075;28;19925;-73
2022/11/02 14:35:12;;;;;;;;;;;14.10;99.90;;;;;;4973812;28;19921;-73
2022/11/02 14:37:46;;;;;;;;;;;14.20;99.90;;;;;;5032021;28;19925;-73
2022/11/02 14:40:24;;;;;;;;;;;14.10;99.90;;;;;;4994887;28;19921;-72
2022/11/02 14:42:56;;;;;;;;;;;14.10;99.90;;;;;;5016210;28;20538;-73
2022/11/02 14:45:40;;;;;;;;;;;14.00;99.90;;;;;;5027012;28;19922;-72